Time;durP1;ratioP1;P1;durP2;ratioP2;P2;SDS_P1;SDS_P2;PMS_P1;PMS_P2;Temp;Humidity;BMP_temperature;BMP_pressure;BME280_temperature;BME280_humidity;BME280_pressure;Samples;Min_cycle;Max_cycle;Signal;HPM_P1;HPM_P2
2020/12/30 00:01:46;;;;;;;24.47;16.10;;;;;;;;;;5036712;28;20474;-72
2020/12/30 00:04:14;;;;;;;21.93;15.77;;;;;;;;;;5035714;28;20495;-72
2020/12/30 00:06:41;;;;;;;22.83;15.97;;;;;;;;;;5035909;28;20458;-73
2020/12/30 00:09:08;;;;;;;23.30;14.67;;;;;;;;;;5035945;28;20470;-72
2020/12/30 00:11:36;;;;;;;21.13;16.57;;;;;;;;;;5035583;28;20458;-72
2020/12/30 00:14:03;;;;;;;21.67;14.57;;;;;;;;;;5035276;28;20827;-72
2020/12/30 00:16:40;;;;;;;29.07;15.37;;;;;;;;;;5035293;28;20459;-72
2020/12/30 00:19:07;;;;;;;24.13;17.80;;;;;;;;;;5035399;28;20461;-72
2020/12/30 00:21:35;;;;;;;25.27;16.20;;;;;;;;;;5035995;28;20466;-72
2020/12/30 00:24:02;;;;;;;25.73;15.97;;;;;;;;;;5036602;28;20560;-72
2020/12/30 00:26:35;;;;;;;21.00;15.20;;;;;;;;;;5036870;28;20463;-72
2020/12/30 00:29:03;;;;;;;24.73;14.77;;;;;;;;;;5036920;28;20461;-72
2020/12/30 00:31:31;;;;;;;23.00;14.60;;;;;;;;;;5036790;28;20553;-72
2020/12/30 00:33:59;;;;;;;26.80;14.27;;;;;;;;;;5036403;28;20536;-72
2020/12/30 00:36:28;;;;;;;22.00;15.17;;;;;;;;;;5039308;28;20463;-72
2020/12/30 00:38:55;;;;;;;22.07;15.10;;;;;;;;;;5038738;28;20487;-72
2020/12/30 00:41:25;;;;;;;19.30;13.50;;;;;;;;;;5039026;28;21029;-72
2020/12/30 00:43:53;;;;;;;22.33;14.40;;;;;;;;;;5039387;28;20609;-72
2020/12/30 00:46:20;;;;;;;19.97;14.23;;;;;;;;;;5038301;28;20498;-73
2020/12/30 00:48:47;;;;;;;23.13;14.47;;;;;;;;;;5038201;28;20458;-72
2020/12/30 00:51:16;;;;;;;25.87;15.80;;;;;;;;;;5039823;28;20798;-72
2020/12/30 00:53:43;;;;;;;20.17;14.13;;;;;;;;;;5040275;28;20473;-72
2020/12/30 00:56:11;;;;;;;28.63;14.77;;;;;;;;;;5039386;28;20660;-72
2020/12/30 00:58:38;;;;;;;23.00;13.50;;;;;;;;;;5038930;28;20699;-72
2020/12/30 01:01:09;;;;;;;23.03;14.70;;;;;;;;;;5039149;28;20462;-72
2020/12/30 01:03:37;;;;;;;25.33;16.27;;;;;;;;;;5038988;28;20619;-72
2020/12/30 01:06:05;;;;;;;22.07;12.57;;;;;;;;;;5038640;28;20910;-72
2020/12/30 01:08:33;;;;;;;21.30;13.90;;;;;;;;;;5038867;28;20543;-72
2020/12/30 01:11:01;;;;;;;25.77;14.83;;;;;;;;;;5039142;28;20467;-72
2020/12/30 01:13:28;;;;;;;21.00;13.60;;;;;;;;;;5038330;28;20477;-72
2020/12/30 01:15:55;;;;;;;28.00;16.27;;;;;;;;;;5038780;28;20466;-72
2020/12/30 01:18:23;;;;;;;26.40;15.80;;;;;;;;;;5038641;28;20516;-72
2020/12/30 01:20:50;;;;;;;22.53;13.67;;;;;;;;;;5038696;28;20463;-72
2020/12/30 01:23:18;;;;;;;20.87;13.80;;;;;;;;;;5038723;28;20493;-72
2020/12/30 01:25:55;;;;;;;26.13;14.13;;;;;;;;;;5038577;28;20462;-72
2020/12/30 01:28:22;;;;;;;23.77;14.47;;;;;;;;;;5037397;28;20459;-71
2020/12/30 01:30:49;;;;;;;24.07;13.57;;;;;;;;;;5038639;28;20474;-72
2020/12/30 01:33:17;;;;;;;22.40;13.40;;;;;;;;;;5039000;28;20455;-72
2020/12/30 01:35:44;;;;;;;19.10;12.53;;;;;;;;;;5030498;28;20536;-72
2020/12/30 01:38:11;;;;;;;17.73;11.93;;;;;;;;;;5038551;28;20486;-72
2020/12/30 01:40:39;;;;;;;21.90;12.67;;;;;;;;;;5038308;28;20462;-72
2020/12/30 01:43:07;;;;;;;15.90;11.20;;;;;;;;;;5038268;28;20784;-72
2020/12/30 01:45:35;;;;;;;20.30;13.83;;;;;;;;;;5037439;28;20749;-72
2020/12/30 01:48:05;;;;;;;20.03;13.67;;;;;;;;;;5037932;28;20512;-72
2020/12/30 01:50:32;;;;;;;23.03;13.30;;;;;;;;;;5038083;28;20749;-71
2020/12/30 01:53:00;;;;;;;21.13;12.03;;;;;;;;;;5039343;28;20746;-72
2020/12/30 01:55:29;;;;;;;22.90;13.40;;;;;;;;;;5038852;28;20863;-72
2020/12/30 01:57:57;;;;;;;22.57;13.20;;;;;;;;;;5039198;28;20879;-72
2020/12/30 02:00:26;;;;;;;21.50;12.80;;;;;;;;;;5039600;28;20463;-72
2020/12/30 02:02:57;;;;;;;22.20;13.77;;;;;;;;;;5038347;28;20466;-72
2020/12/30 02:05:25;;;;;;;18.50;12.83;;;;;;;;;;5038527;28;20847;-71
2020/12/30 02:07:52;;;;;;;22.60;13.63;;;;;;;;;;5039675;28;20465;-72
2020/12/30 02:10:20;;;;;;;16.43;12.17;;;;;;;;;;5038138;28;20474;-72
2020/12/30 02:12:48;;;;;;;16.77;11.53;;;;;;;;;;5037729;28;20520;-72
2020/12/30 02:15:23;;;;;;;20.03;11.50;;;;;;;;;;5037892;28;20548;-72
2020/12/30 02:17:51;;;;;;;21.67;12.47;;;;;;;;;;5036830;28;20481;-72
2020/12/30 02:20:19;;;;;;;18.83;11.63;;;;;;;;;;5038136;28;20451;-72
2020/12/30 02:22:49;;;;;;;22.17;12.07;;;;;;;;;;5037442;28;20797;-71
2020/12/30 02:25:47;;;;;;;19.57;13.00;;;;;;;;;;5036715;28;20470;-72
2020/12/30 02:28:15;;;;;;;20.33;12.53;;;;;;;;;;5036444;28;20465;-72
2020/12/30 02:30:42;;;;;;;20.03;11.20;;;;;;;;;;5037382;28;20481;-71
2020/12/30 02:33:10;;;;;;;18.83;11.23;;;;;;;;;;5037054;28;20463;-71
2020/12/30 02:35:37;;;;;;;17.00;11.60;;;;;;;;;;5037993;28;20466;-71
2020/12/30 02:38:05;;;;;;;16.33;11.97;;;;;;;;;;5036501;28;20502;-71
2020/12/30 02:40:32;;;;;;;22.00;13.00;;;;;;;;;;5038021;28;20508;-71
2020/12/30 02:43:00;;;;;;;17.43;11.07;;;;;;;;;;5037759;28;20497;-72
2020/12/30 02:45:28;;;;;;;15.13;11.03;;;;;;;;;;5037712;28;20462;-72
2020/12/30 02:47:56;;;;;;;18.03;11.73;;;;;;;;;;5037633;28;20541;-72
2020/12/30 02:50:23;;;;;;;15.40;11.10;;;;;;;;;;5037946;28;20730;-72
2020/12/30 02:52:50;;;;;;;16.20;10.63;;;;;;;;;;5037721;28;20459;-72
2020/12/30 02:55:18;;;;;;;18.03;11.20;;;;;;;;;;5038873;28;20481;-72
2020/12/30 02:57:45;;;;;;;19.13;11.47;;;;;;;;;;5036857;28;20458;-72
2020/12/30 03:00:13;;;;;;;18.10;12.40;;;;;;;;;;5037486;28;20540;-72
2020/12/30 03:02:41;;;;;;;16.27;11.43;;;;;;;;;;5038100;28;20454;-72
2020/12/30 03:05:09;;;;;;;17.07;11.60;;;;;;;;;;5037354;28;20505;-71
2020/12/30 03:07:36;;;;;;;16.50;10.03;;;;;;;;;;5036993;28;20503;-72
2020/12/30 03:10:04;;;;;;;14.87;11.37;;;;;;;;;;5037440;28;20470;-72
2020/12/30 03:12:31;;;;;;;21.83;12.00;;;;;;;;;;5037214;28;20466;-71
2020/12/30 03:14:59;;;;;;;16.03;10.87;;;;;;;;;;5037152;28;20470;-72
2020/12/30 03:17:26;;;;;;;15.00;10.97;;;;;;;;;;5037219;28;20466;-71
2020/12/30 03:19:54;;;;;;;17.77;13.27;;;;;;;;;;5036982;28;20467;-72
2020/12/30 03:22:22;;;;;;;22.40;11.80;;;;;;;;;;5037702;28;20531;-71
2020/12/30 03:24:49;;;;;;;15.23;10.77;;;;;;;;;;5037722;28;20582;-73
2020/12/30 03:27:16;;;;;;;14.90;9.87;;;;;;;;;;5036738;28;20461;-72
2020/12/30 03:29:44;;;;;;;18.27;12.17;;;;;;;;;;5028066;28;20466;-72
2020/12/30 03:32:11;;;;;;;17.90;11.77;;;;;;;;;;5037132;28;20459;-72
2020/12/30 03:34:38;;;;;;;17.10;10.87;;;;;;;;;;5036832;28;21167;-72
2020/12/30 03:37:07;;;;;;;14.53;10.43;;;;;;;;;;5037078;28;20841;-72
2020/12/30 03:39:34;;;;;;;18.70;11.70;;;;;;;;;;5036951;28;20454;-72
2020/12/30 03:42:01;;;;;;;17.17;11.43;;;;;;;;;;5037163;28;20481;-72
2020/12/30 03:44:29;;;;;;;17.77;12.03;;;;;;;;;;5036187;28;20780;-72
2020/12/30 03:46:56;;;;;;;15.13;10.87;;;;;;;;;;5036769;28;20459;-71
2020/12/30 03:49:23;;;;;;;17.20;10.23;;;;;;;;;;5036954;28;20532;-72
2020/12/30 03:51:51;;;;;;;14.80;10.60;;;;;;;;;;5036950;28;20705;-72
2020/12/30 03:54:19;;;;;;;15.63;10.07;;;;;;;;;;5036794;28;20458;-72
2020/12/30 03:56:46;;;;;;;20.27;12.60;;;;;;;;;;5037485;28;20475;-73
2020/12/30 03:59:14;;;;;;;13.13;9.80;;;;;;;;;;5035143;28;20447;-71
2020/12/30 04:01:41;;;;;;;17.80;11.57;;;;;;;;;;5037094;28;20463;-73
2020/12/30 04:04:08;;;;;;;15.47;11.63;;;;;;;;;;5038155;28;20525;-72
2020/12/30 04:06:35;;;;;;;17.50;12.27;;;;;;;;;;5036834;28;20798;-70
2020/12/30 04:09:03;;;;;;;13.33;10.57;;;;;;;;;;5037024;28;20459;-72
2020/12/30 04:11:31;;;;;;;14.63;11.93;;;;;;;;;;5035121;28;20459;-72
2020/12/30 04:13:58;;;;;;;23.50;11.60;;;;;;;;;;5036202;28;20459;-71
2020/12/30 04:16:26;;;;;;;18.67;12.60;;;;;;;;;;5035658;28;20466;-72
2020/12/30 04:18:53;;;;;;;16.50;12.87;;;;;;;;;;5035245;28;20921;-71
2020/12/30 04:21:21;;;;;;;17.00;10.43;;;;;;;;;;5035493;28;20524;-72
2020/12/30 04:23:49;;;;;;;15.40;11.80;;;;;;;;;;5034729;28;20483;-71
2020/12/30 04:26:17;;;;;;;14.43;10.23;;;;;;;;;;5034256;28;20447;-72
2020/12/30 04:28:46;;;;;;;18.07;12.00;;;;;;;;;;5035090;28;20470;-72
2020/12/30 04:31:14;;;;;;;17.37;10.80;;;;;;;;;;5035066;28;20887;-72
2020/12/30 04:33:43;;;;;;;17.23;11.70;;;;;;;;;;5039453;28;20916;-73
2020/12/30 04:36:13;;;;;;;19.90;10.50;;;;;;;;;;5057125;28;20461;-72
2020/12/30 04:38:42;;;;;;;13.13;10.20;;;;;;;;;;5056813;28;20468;-72
2020/12/30 04:41:11;;;;;;;15.10;10.63;;;;;;;;;;5056406;28;20453;-72
2020/12/30 04:43:39;;;;;;;16.57;10.50;;;;;;;;;;5056281;28;20498;-72
2020/12/30 04:46:07;;;;;;;21.03;10.00;;;;;;;;;;5056501;28;20547;-72
2020/12/30 04:48:35;;;;;;;19.03;12.00;;;;;;;;;;5056968;28;20457;-72
2020/12/30 04:51:03;;;;;;;16.00;9.37;;;;;;;;;;5056107;28;20442;-72
2020/12/30 04:53:32;;;;;;;13.23;9.53;;;;;;;;;;5055968;28;20469;-72
2020/12/30 04:56:00;;;;;;;17.10;10.27;;;;;;;;;;5039123;28;20566;-71
2020/12/30 04:58:28;;;;;;;14.67;10.30;;;;;;;;;;5035690;28;20466;-71
2020/12/30 05:00:56;;;;;;;14.60;11.57;;;;;;;;;;5039099;28;21192;-72
2020/12/30 05:03:27;;;;;;;18.47;11.20;;;;;;;;;;5036747;28;20883;-72
2020/12/30 05:05:55;;;;;;;17.50;11.47;;;;;;;;;;5036636;28;20907;-72
2020/12/30 05:08:23;;;;;;;16.00;11.17;;;;;;;;;;5036883;28;20528;-71
2020/12/30 05:10:52;;;;;;;14.67;10.40;;;;;;;;;;5037572;28;20517;-71
2020/12/30 05:13:20;;;;;;;16.20;11.50;;;;;;;;;;5036513;28;20494;-72
2020/12/30 05:15:47;;;;;;;14.60;11.40;;;;;;;;;;5037379;28;20486;-71
2020/12/30 05:18:14;;;;;;;14.40;9.90;;;;;;;;;;5036357;28;20898;-71
2020/12/30 05:20:46;;;;;;;13.73;10.10;;;;;;;;;;5029506;28;20793;-72
2020/12/30 05:23:13;;;;;;;19.40;10.30;;;;;;;;;;5039662;28;20532;-71
2020/12/30 05:25:41;;;;;;;12.90;10.20;;;;;;;;;;5045627;28;20458;-71
2020/12/30 05:28:10;;;;;;;16.37;11.80;;;;;;;;;;5060444;28;20469;-71
2020/12/30 05:30:38;;;;;;;16.80;11.27;;;;;;;;;;5059598;28;20450;-72
2020/12/30 05:33:06;;;;;;;14.10;9.80;;;;;;;;;;5059594;28;21036;-72
2020/12/30 05:35:34;;;;;;;17.93;10.60;;;;;;;;;;5059508;28;20497;-71
2020/12/30 05:38:02;;;;;;;13.47;10.13;;;;;;;;;;5059799;28;20453;-71
2020/12/30 05:40:32;;;;;;;13.50;8.53;;;;;;;;;;5059228;28;20462;-72
2020/12/30 05:43:15;;;;;;;17.60;11.13;;;;;;;;;;5042637;28;20465;-72
2020/12/30 05:45:48;;;;;;;17.77;11.70;;;;;;;;;;5058288;28;20472;-72
2020/12/30 05:48:18;;;;;;;16.03;11.20;;;;;;;;;;5058885;28;20458;-72
2020/12/30 05:50:51;;;;;;;14.77;10.70;;;;;;;;;;5051527;28;20878;-72
2020/12/30 05:53:27;;;;;;;14.43;10.10;;;;;;;;;;5059547;28;20461;-72
2020/12/30 05:56:08;;;;;;;15.77;11.00;;;;;;;;;;5058885;28;20484;-71
2020/12/30 05:58:37;;;;;;;13.73;10.10;;;;;;;;;;5059709;28;20464;-71
2020/12/30 06:01:27;;;;;;;20.57;11.77;;;;;;;;;;5058592;28;20722;-71
2020/12/30 06:03:55;;;;;;;15.47;10.70;;;;;;;;;;5058442;28;20781;-71
2020/12/30 06:06:22;;;;;;;18.50;11.10;;;;;;;;;;5059005;28;20527;-71
2020/12/30 06:08:51;;;;;;;15.13;10.57;;;;;;;;;;5058471;28;20462;-71
2020/12/30 06:11:24;;;;;;;17.53;10.90;;;;;;;;;;5058276;28;20472;-71
2020/12/30 06:13:53;;;;;;;16.40;9.00;;;;;;;;;;5059235;28;20540;-71
2020/12/30 06:16:21;;;;;;;14.10;9.87;;;;;;;;;;5056938;28;20450;-71
2020/12/30 06:18:49;;;;;;;15.00;10.20;;;;;;;;;;5058842;28;20459;-71
2020/12/30 06:21:17;;;;;;;15.80;10.40;;;;;;;;;;5058963;28;20474;-72
2020/12/30 06:23:45;;;;;;;17.10;10.97;;;;;;;;;;5058321;28;20662;-71
2020/12/30 06:26:19;;;;;;;15.60;10.20;;;;;;;;;;5051530;28;20468;-71
2020/12/30 06:28:50;;;;;;;14.47;9.80;;;;;;;;;;5052744;28;20500;-71
2020/12/30 06:31:21;;;;;;;13.20;9.20;;;;;;;;;;5057438;28;20546;-72
2020/12/30 06:33:48;;;;;;;15.40;9.83;;;;;;;;;;5058238;28;20473;-71
2020/12/30 06:36:24;;;;;;;16.90;10.77;;;;;;;;;;5057472;28;20892;-72
2020/12/30 06:38:51;;;;;;;14.07;9.20;;;;;;;;;;5058515;28;20472;-71
2020/12/30 06:41:20;;;;;;;16.83;10.43;;;;;;;;;;5058442;28;20446;-72
2020/12/30 06:43:47;;;;;;;13.60;7.73;;;;;;;;;;5038060;28;20490;-71
2020/12/30 06:46:15;;;;;;;15.17;9.23;;;;;;;;;;5054723;28;20450;-71
2020/12/30 06:48:55;;;;;;;13.87;9.10;;;;;;;;;;5056893;28;20481;-72
2020/12/30 06:51:23;;;;;;;15.73;9.70;;;;;;;;;;5052296;28;20461;-71
2020/12/30 06:53:50;;;;;;;12.33;9.30;;;;;;;;;;5056291;28;20901;-72
2020/12/30 06:56:35;;;;;;;16.57;10.33;;;;;;;;;;5038126;28;20469;-71
2020/12/30 06:59:05;;;;;;;12.77;9.40;;;;;;;;;;5038162;28;20890;-71
2020/12/30 07:01:52;;;;;;;14.23;9.33;;;;;;;;;;5036569;28;20563;-71
2020/12/30 07:04:20;;;;;;;13.83;8.90;;;;;;;;;;5038139;28;20503;-71
2020/12/30 07:06:47;;;;;;;13.30;9.10;;;;;;;;;;5037994;28;20466;-71
2020/12/30 07:09:16;;;;;;;13.57;8.90;;;;;;;;;;5037472;28;20470;-72
2020/12/30 07:11:51;;;;;;;12.53;8.20;;;;;;;;;;5038014;28;20455;-72
2020/12/30 07:14:22;;;;;;;14.57;9.43;;;;;;;;;;5037682;28;21181;-72
2020/12/30 07:16:54;;;;;;;10.97;7.70;;;;;;;;;;5036449;28;20459;-71
2020/12/30 07:19:22;;;;;;;13.47;7.20;;;;;;;;;;5036409;28;20558;-70
2020/12/30 07:21:50;;;;;;;16.60;8.03;;;;;;;;;;5036267;28;20505;-70
2020/12/30 07:24:21;;;;;;;15.90;8.80;;;;;;;;;;5020877;28;20938;-71
2020/12/30 07:26:49;;;;;;;14.50;8.50;;;;;;;;;;5037228;28;20463;-71
2020/12/30 07:29:17;;;;;;;11.50;7.53;;;;;;;;;;5037010;28;20901;-71
2020/12/30 07:31:48;;;;;;;12.83;8.30;;;;;;;;;;5042652;28;20450;-71
2020/12/30 07:34:16;;;;;;;12.70;7.00;;;;;;;;;;5056916;28;20867;-71
2020/12/30 07:36:45;;;;;;;12.70;9.57;;;;;;;;;;5057694;28;20764;-71
2020/12/30 07:39:12;;;;;;;9.40;4.80;;;;;;;;;;5057579;28;20469;-71
2020/12/30 07:41:43;;;;;;;11.50;7.60;;;;;;;;;;5058069;28;20820;-71
2020/12/30 07:44:13;;;;;;;12.50;8.60;;;;;;;;;;5057140;28;20493;-72
2020/12/30 07:46:43;;;;;;;12.20;7.00;;;;;;;;;;5057388;28;20473;-71
2020/12/30 07:49:12;;;;;;;10.73;7.40;;;;;;;;;;5057054;28;20477;-71
2020/12/30 07:51:47;;;;;;;13.93;8.03;;;;;;;;;;5057032;28;20466;-71
2020/12/30 07:54:15;;;;;;;11.57;7.47;;;;;;;;;;5057703;28;20457;-70
2020/12/30 07:56:43;;;;;;;14.10;7.13;;;;;;;;;;5056440;28;20466;-71
2020/12/30 07:59:10;;;;;;;10.60;6.83;;;;;;;;;;5056082;28;20453;-71
2020/12/30 08:01:38;;;;;;;15.77;8.63;;;;;;;;;;5056697;28;20526;-71
2020/12/30 08:04:09;;;;;;;11.37;7.10;;;;;;;;;;5055465;28;20485;-71
2020/12/30 08:06:46;;;;;;;13.83;7.17;;;;;;;;;;5056144;28;20465;-71
2020/12/30 08:09:14;;;;;;;12.70;7.53;;;;;;;;;;5057110;28;21021;-71
2020/12/30 08:11:48;;;;;;;12.60;8.60;;;;;;;;;;5056507;28;20757;-71
2020/12/30 08:14:20;;;;;;;14.53;7.90;;;;;;;;;;5056036;28;20469;-71
2020/12/30 08:16:58;;;;;;;13.17;7.90;;;;;;;;;;5049064;28;20462;-72
2020/12/30 08:19:35;;;;;;;14.10;7.70;;;;;;;;;;5053953;28;20894;-72
2020/12/30 08:22:04;;;;;;;12.10;7.83;;;;;;;;;;5055158;28;20819;-71
2020/12/30 08:24:32;;;;;;;18.10;7.67;;;;;;;;;;5056282;28;20482;-71
2020/12/30 08:27:00;;;;;;;12.67;8.27;;;;;;;;;;5055786;28;20478;-70
2020/12/30 08:29:31;;;;;;;17.70;8.70;;;;;;;;;;5056548;28;20477;-70
2020/12/30 08:32:00;;;;;;;15.77;7.97;;;;;;;;;;5056260;28;20561;-70
2020/12/30 08:34:29;;;;;;;15.03;8.40;;;;;;;;;;5056992;28;20458;-70
2020/12/30 08:37:03;;;;;;;13.67;9.67;;;;;;;;;;5056415;28;20477;-71
2020/12/30 08:39:32;;;;;;;20.80;11.00;;;;;;;;;;5055681;28;20473;-70
2020/12/30 08:42:00;;;;;;;25.10;15.30;;;;;;;;;;5056457;28;20795;-71
2020/12/30 08:44:35;;;;;;;23.97;13.23;;;;;;;;;;5055979;28;20486;-72
2020/12/30 08:47:04;;;;;;;17.97;11.60;;;;;;;;;;5055443;28;20475;-71
2020/12/30 08:49:32;;;;;;;21.83;10.80;;;;;;;;;;5054522;28;20450;-70
2020/12/30 08:52:19;;;;;;;17.67;11.67;;;;;;;;;;5054713;28;20526;-72
2020/12/30 08:55:03;;;;;;;14.33;7.80;;;;;;;;;;5034952;28;20528;-73
2020/12/30 08:57:31;;;;;;;15.03;9.23;;;;;;;;;;5038492;28;20584;-70
2020/12/30 09:00:17;;;;;;;13.13;7.80;;;;;;;;;;5038564;28;20459;-70
2020/12/30 09:02:45;;;;;;;12.80;8.93;;;;;;;;;;5038334;28;20847;-70
2020/12/30 09:05:12;;;;;;;17.63;9.43;;;;;;;;;;5052827;28;21009;-71
2020/12/30 09:07:39;;;;;;;12.70;8.60;;;;;;;;;;5060088;28;20520;-71
2020/12/30 09:10:09;;;;;;;13.53;8.73;;;;;;;;;;5057498;28;20470;-71
2020/12/30 09:12:36;;;;;;;16.83;10.00;;;;;;;;;;5058152;28;20465;-71
2020/12/30 09:15:04;;;;;;;11.83;7.77;;;;;;;;;;5058269;28;20450;-71
2020/12/30 09:17:45;;;;;;;11.77;7.40;;;;;;;;;;5057362;28;20477;-71
2020/12/30 09:20:14;;;;;;;15.30;8.83;;;;;;;;;;5057243;28;20541;-70
2020/12/30 09:22:42;;;;;;;12.40;9.73;;;;;;;;;;5049435;28;20454;-70
2020/12/30 09:25:24;;;;;;;14.63;8.90;;;;;;;;;;5057798;28;20484;-70
2020/12/30 09:27:52;;;;;;;11.87;7.60;;;;;;;;;;5057296;28;20454;-70
2020/12/30 09:30:20;;;;;;;14.27;9.50;;;;;;;;;;5057275;28;20504;-73
2020/12/30 09:32:48;;;;;;;14.70;9.13;;;;;;;;;;5058065;28;20491;-70
2020/12/30 09:35:28;;;;;;;12.80;8.40;;;;;;;;;;5057110;28;20465;-71
2020/12/30 09:37:56;;;;;;;11.97;9.17;;;;;;;;;;5050820;28;20963;-71
2020/12/30 09:40:25;;;;;;;13.93;8.60;;;;;;;;;;5057544;28;20470;-70
2020/12/30 09:42:52;;;;;;;16.30;8.40;;;;;;;;;;5057625;28;20497;-71
2020/12/30 09:45:21;;;;;;;15.37;8.73;;;;;;;;;;5057938;28;20929;-70
2020/12/30 09:47:48;;;;;;;13.63;8.23;;;;;;;;;;5058396;28;20466;-70
2020/12/30 09:50:17;;;;;;;10.53;7.40;;;;;;;;;;5058110;28;20512;-70
2020/12/30 09:52:57;;;;;;;12.50;7.47;;;;;;;;;;5049937;28;20619;-71
2020/12/30 09:55:26;;;;;;;12.97;8.30;;;;;;;;;;5058145;28;20516;-72
2020/12/30 09:57:53;;;;;;;8.80;5.30;;;;;;;;;;5058425;28;20462;-70
2020/12/30 10:00:27;;;;;;;13.70;7.90;;;;;;;;;;5059781;28;20461;-70
2020/12/30 10:02:56;;;;;;;13.73;8.70;;;;;;;;;;5057570;28;20460;-72
2020/12/30 10:05:23;;;;;;;17.23;8.73;;;;;;;;;;5040370;28;20490;-71
2020/12/30 10:07:50;;;;;;;13.80;8.80;;;;;;;;;;5038334;28;20520;-71
2020/12/30 10:10:17;;;;;;;24.33;11.10;;;;;;;;;;5038123;28;20463;-71
2020/12/30 10:12:46;;;;;;;21.80;11.43;;;;;;;;;;5036309;28;20459;-71
2020/12/30 10:15:13;;;;;;;16.53;9.10;;;;;;;;;;5054328;28;20593;-71
2020/12/30 10:17:41;;;;;;;15.30;9.87;;;;;;;;;;5056811;28;20465;-70
2020/12/30 10:20:09;;;;;;;13.70;8.00;;;;;;;;;;5039489;28;20467;-71
2020/12/30 10:22:38;;;;;;;18.33;9.20;;;;;;;;;;5053515;28;20469;-71
2020/12/30 10:25:09;;;;;;;11.93;7.77;;;;;;;;;;5057756;28;20500;-71
2020/12/30 10:27:36;;;;;;;11.80;7.57;;;;;;;;;;5051586;28;20458;-70
2020/12/30 10:30:04;;;;;;;12.40;9.03;;;;;;;;;;5057217;28;20472;-71
2020/12/30 10:32:32;;;;;;;14.70;7.30;;;;;;;;;;5046241;28;20942;-71
2020/12/30 10:34:59;;;;;;;14.73;8.70;;;;;;;;;;5043043;28;20528;-70
2020/12/30 10:37:27;;;;;;;13.97;9.07;;;;;;;;;;5040471;28;21160;-70
2020/12/30 10:39:54;;;;;;;14.00;8.27;;;;;;;;;;5057454;28;20469;-70
2020/12/30 10:42:22;;;;;;;9.63;6.90;;;;;;;;;;5038374;28;20499;-70
2020/12/30 10:44:49;;;;;;;15.23;8.53;;;;;;;;;;5051418;28;20948;-69
2020/12/30 10:47:24;;;;;;;9.67;7.37;;;;;;;;;;5058530;28;20596;-70
2020/12/30 10:49:52;;;;;;;13.20;7.70;;;;;;;;;;5058082;28;20465;-71
2020/12/30 10:52:19;;;;;;;13.70;8.30;;;;;;;;;;5048712;28;20458;-71
2020/12/30 10:54:47;;;;;;;8.57;5.10;;;;;;;;;;5053694;28;20889;-71
2020/12/30 10:57:15;;;;;;;11.87;6.93;;;;;;;;;;5058275;28;20464;-71
2020/12/30 10:59:42;;;;;;;14.57;8.50;;;;;;;;;;5057645;28;20474;-70
2020/12/30 11:02:11;;;;;;;12.53;8.83;;;;;;;;;;5058594;28;20543;-70
2020/12/30 11:04:39;;;;;;;13.43;7.30;;;;;;;;;;5056451;28;20840;-70
2020/12/30 11:07:07;;;;;;;12.63;8.03;;;;;;;;;;5041085;28;20470;-70
2020/12/30 11:09:34;;;;;;;16.27;7.00;;;;;;;;;;5055955;28;20531;-70
2020/12/30 11:12:03;;;;;;;12.60;8.90;;;;;;;;;;5054432;28;20607;-69
2020/12/30 11:14:31;;;;;;;13.70;8.90;;;;;;;;;;5037535;28;20485;-70
2020/12/30 11:16:59;;;;;;;13.70;7.20;;;;;;;;;;5036186;28;20466;-70
2020/12/30 11:19:26;;;;;;;11.73;8.17;;;;;;;;;;5055925;28;20468;-70
2020/12/30 11:21:57;;;;;;;12.40;8.10;;;;;;;;;;5056390;28;20478;-71
2020/12/30 11:24:27;;;;;;;9.30;7.23;;;;;;;;;;5053671;28;20482;-70
2020/12/30 11:26:55;;;;;;;16.30;7.73;;;;;;;;;;5053661;28;20470;-70
2020/12/30 11:29:22;;;;;;;9.13;5.70;;;;;;;;;;5045630;28;20447;-70
2020/12/30 11:31:50;;;;;;;8.40;6.43;;;;;;;;;;5034785;28;20474;-70
2020/12/30 11:34:17;;;;;;;12.93;7.50;;;;;;;;;;5044591;28;20558;-70
2020/12/30 11:36:46;;;;;;;11.23;7.27;;;;;;;;;;5055248;28;20495;-70
2020/12/30 11:39:14;;;;;;;9.13;6.27;;;;;;;;;;5038058;28;20545;-70
2020/12/30 11:41:43;;;;;;;14.17;7.07;;;;;;;;;;5035239;28;20839;-70
2020/12/30 11:44:10;;;;;;;8.87;6.43;;;;;;;;;;5035175;28;20739;-70
2020/12/30 11:46:41;;;;;;;8.20;5.57;;;;;;;;;;5035037;28;21090;-72
2020/12/30 11:49:14;;;;;;;10.47;7.13;;;;;;;;;;5035922;28;20722;-71
2020/12/30 11:51:42;;;;;;;9.93;6.20;;;;;;;;;;5035902;28;20517;-71
2020/12/30 11:54:09;;;;;;;8.83;6.60;;;;;;;;;;5036690;28;20455;-70
2020/12/30 11:56:39;;;;;;;12.27;6.17;;;;;;;;;;5035293;28;20815;-70
2020/12/30 11:59:10;;;;;;;9.03;6.20;;;;;;;;;;5071084;28;20508;-71
2020/12/30 12:01:43;;;;;;;10.30;6.40;;;;;;;;;;5075978;28;20816;-71
2020/12/30 12:04:11;;;;;;;8.43;6.13;;;;;;;;;;5073838;28;20488;-70
2020/12/30 12:06:39;;;;;;;9.37;4.90;;;;;;;;;;5073924;28;20473;-72
2020/12/30 12:09:06;;;;;;;9.67;6.20;;;;;;;;;;5075042;28;20481;-72
2020/12/30 12:11:33;;;;;;;9.70;6.20;;;;;;;;;;5075901;28;20536;-71
2020/12/30 12:14:02;;;;;;;7.87;5.70;;;;;;;;;;5076752;28;20461;-72
2020/12/30 12:16:29;;;;;;;10.03;6.20;;;;;;;;;;5074505;28;20480;-72
2020/12/30 12:18:57;;;;;;;8.30;4.90;;;;;;;;;;5076562;28;20710;-71
2020/12/30 12:21:24;;;;;;;11.00;6.40;;;;;;;;;;5075402;28;20457;-71
2020/12/30 12:23:52;;;;;;;11.00;7.07;;;;;;;;;;5074207;28;20464;-70
2020/12/30 12:26:23;;;;;;;11.50;7.47;;;;;;;;;;5074166;28;20488;-71
2020/12/30 12:29:08;;;;;;;8.87;5.47;;;;;;;;;;5073531;28;20526;-71
2020/12/30 12:31:37;;;;;;;8.80;6.50;;;;;;;;;;5076464;28;20503;-72
2020/12/30 12:34:04;;;;;;;14.30;6.17;;;;;;;;;;5078149;28;20453;-72
2020/12/30 12:36:35;;;;;;;8.93;5.60;;;;;;;;;;5078936;28;20785;-71
2020/12/30 12:39:03;;;;;;;10.67;6.77;;;;;;;;;;5079273;28;20461;-70
2020/12/30 12:41:34;;;;;;;10.83;6.50;;;;;;;;;;5076800;28;20448;-71
2020/12/30 12:44:02;;;;;;;7.23;4.43;;;;;;;;;;5077491;28;20453;-72
2020/12/30 12:46:44;;;;;;;9.83;5.80;;;;;;;;;;5056817;28;20459;-71
2020/12/30 12:49:24;;;;;;;16.00;6.10;;;;;;;;;;5038627;28;20462;-72
2020/12/30 12:51:56;;;;;;;9.40;6.83;;;;;;;;;;5036999;28;20519;-71
2020/12/30 12:54:23;;;;;;;6.17;4.77;;;;;;;;;;5038636;28;20480;-72
2020/12/30 12:57:10;;;;;;;6.80;4.83;;;;;;;;;;5040686;28;20466;-71
2020/12/30 13:03:11;;;;;;;8.30;6.03;;;;;;;;;;5035546;28;20508;-70
2020/12/30 13:05:52;;;;;;;8.83;6.70;;;;;;;;;;5038567;28;21011;-73
2020/12/30 13:08:29;;;;;;;9.23;5.77;;;;;;;;;;5040712;28;20557;-71
2020/12/30 13:11:00;;;;;;;8.10;5.80;;;;;;;;;;5039530;28;20570;-72
2020/12/30 13:13:38;;;;;;;11.77;6.60;;;;;;;;;;5041873;28;20528;-72
2020/12/30 13:16:18;;;;;;;7.93;5.33;;;;;;;;;;5041166;28;20470;-71
2020/12/30 13:18:48;;;;;;;8.37;5.83;;;;;;;;;;5041941;28;20980;-71
2020/12/30 13:21:20;;;;;;;6.73;4.90;;;;;;;;;;5041239;28;20471;-73
2020/12/30 13:23:48;;;;;;;8.53;5.90;;;;;;;;;;5038359;28;20462;-72
2020/12/30 13:26:18;;;;;;;13.17;7.90;;;;;;;;;;5039437;28;20777;-70
2020/12/30 13:28:47;;;;;;;8.67;6.30;;;;;;;;;;5042430;28;20449;-71
2020/12/30 13:31:22;;;;;;;8.63;6.60;;;;;;;;;;5058903;28;20842;-72
2020/12/30 13:33:51;;;;;;;13.80;7.13;;;;;;;;;;5058582;28;20460;-70
2020/12/30 13:36:24;;;;;;;11.40;7.03;;;;;;;;;;5059992;28;20507;-71
2020/12/30 13:38:55;;;;;;;9.47;6.50;;;;;;;;;;5057864;28;20751;-72
2020/12/30 13:41:26;;;;;;;9.93;6.80;;;;;;;;;;5056527;28;20462;-71
2020/12/30 13:44:08;;;;;;;9.10;7.60;;;;;;;;;;5059675;28;20526;-71
2020/12/30 13:46:37;;;;;;;9.93;6.17;;;;;;;;;;5059344;28;20465;-72
2020/12/30 13:49:05;;;;;;;10.73;7.20;;;;;;;;;;5057292;28;20456;-73
2020/12/30 13:51:40;;;;;;;11.00;6.73;;;;;;;;;;5057672;28;20545;-73
2020/12/30 13:54:13;;;;;;;9.67;7.47;;;;;;;;;;5037614;28;20520;-73
2020/12/30 13:56:41;;;;;;;9.63;6.63;;;;;;;;;;5037131;28;20482;-73
2020/12/30 13:59:08;;;;;;;12.00;7.60;;;;;;;;;;5040530;28;20947;-72
2020/12/30 14:01:36;;;;;;;9.03;6.03;;;;;;;;;;5054397;28;20535;-72
2020/12/30 14:04:04;;;;;;;13.43;7.30;;;;;;;;;;5055110;28;20465;-72
2020/12/30 14:06:32;;;;;;;11.07;7.50;;;;;;;;;;5055939;28;20470;-72
2020/12/30 14:09:00;;;;;;;11.70;6.47;;;;;;;;;;5055492;28;20458;-72
2020/12/30 14:11:29;;;;;;;11.60;8.33;;;;;;;;;;5055309;28;20576;-72
2020/12/30 14:13:57;;;;;;;11.80;8.43;;;;;;;;;;5055413;28;20494;-72
2020/12/30 14:16:24;;;;;;;10.90;7.80;;;;;;;;;;5054221;28;20819;-72
2020/12/30 14:18:51;;;;;;;12.27;8.23;;;;;;;;;;5055506;28;20454;-72
2020/12/30 14:21:19;;;;;;;9.80;7.70;;;;;;;;;;5055638;28;20534;-72
2020/12/30 14:23:46;;;;;;;12.27;8.77;;;;;;;;;;5054714;28;20453;-72
2020/12/30 14:26:22;;;;;;;12.70;8.60;;;;;;;;;;5055042;28;20501;-72
2020/12/30 14:28:53;;;;;;;11.10;8.60;;;;;;;;;;5048454;28;20803;-72
2020/12/30 14:31:24;;;;;;;12.13;8.63;;;;;;;;;;5055688;28;20894;-71
2020/12/30 14:33:51;;;;;;;17.67;8.90;;;;;;;;;;5056748;28;20471;-72
2020/12/30 14:36:22;;;;;;;15.90;9.47;;;;;;;;;;5055748;28;20504;-71
2020/12/30 14:38:51;;;;;;;13.77;9.23;;;;;;;;;;5057134;28;20527;-72
2020/12/30 14:41:19;;;;;;;15.30;8.67;;;;;;;;;;5055031;28;20531;-71
2020/12/30 14:43:46;;;;;;;13.13;9.40;;;;;;;;;;5058319;28;20469;-71